SondeTracker

Meteorological Radiosondes Database

Operations

Sounding was ended - last measurement: 2022-12-07 01:16:36z

MAP
About Radiosonde

Number: U3044505

Launch Site:

Type: RS41

AUX: NO

Frequency: 403.400 MHz

Max Speed: 209 km/h at 32118 m

Average Speed: 95.22 km/h

Max Altitude: 33647 m

Average Ascent Speed: 5.59 m/s

Average Descent Speed: 25.85 m/s

Status: UNKNOWN

Status Changes
Launch Site Type AUX Frequency Status Finder Landing Point Description Changes made by
APRS Statistics

Received Frames: 65

First Frame [UTC]: 2022-12-07 00:07:16z

Last Frame [UTC]: 2022-12-07 01:16:36z

Receivers: N4XWC-2

Flight Time: 01:09:20 h

Distance From First Measurement: 104.60 km

Nearest City: Meridian [MS] (US) [51.87 km]

Nearest Hunter: [0.00 km]

Ground Altitude: 48 m

Distance from QTH: 0.00 km

APRS Data
Receiver Number Date/Time [UTC] φ λ Course [°] Speed [km/h] Altitude [m] Description
N4XWC-2U30445052022-12-07 01:16:3632.3997-88.137567391700Clb=-15.8m/s t=12.4C h=84.9% p=-1.0hPa 403.401 MHz Type=RS41-NG ser=U3044505 Radiosonde
N4XWC-2U30445052022-12-07 01:15:4032.3983-88.144386462635Clb=-15.4m/s t=11.9C h=49.1% p=-1.0hPa 403.401 MHz Type=RS41-NG ser=U3044505 Radiosonde
N4XWC-2U30445052022-12-07 01:14:4932.3974-88.15384523583Clb=-15.3m/s t=4.4C h=69.2% p=-1.0hPa 403.401 MHz Type=RS41-NG ser=U3044505 Radiosonde
N4XWC-2U30445052022-12-07 01:13:5632.3959-88.162178464474Clb=-14.9m/s t=-2.5C h=52.1% p=-1.0hPa 403.401 MHz Type=RS41-NG ser=U3044505 Radiosonde
N4XWC-2U30445052022-12-07 01:12:5932.3945-88.170582545344Clb=-13.6m/s t=-8.4C h=65.2% p=-1.0hPa 403.401 MHz Type=RS41-NG ser=U3044505 Radiosonde
N4XWC-2U30445052022-12-07 01:11:5932.3942-88.18389786069Clb=-9.5m/s t=-12.8C h=79.2% p=-1.0hPa 403.401 MHz Type=RS41-NG ser=U3044505 Radiosonde
N4XWC-2U30445052022-12-07 01:10:5932.3947-88.197692856954Clb=-16.3m/s t=-17.2C h=100.0% p=-1.0hPa 403.401 MHz Type=RS41-NG ser=U3044505 Radiosonde
N4XWC-2U30445052022-12-07 01:09:5732.3934-88.21388857939Clb=-17.5m/s t=-24.2C h=71.2% p=-1.0hPa 403.401 MHz Type=RS41-NG ser=U3044505 Radiosonde
N4XWC-2U30445052022-12-07 01:08:5232.3934-88.229592988856Clb=-16.0m/s t=-32.1C h=88.3% p=-1.0hPa 403.401 MHz Type=RS41-NG ser=U3044505 Radiosonde
N4XWC-2U30445052022-12-07 01:07:4932.3953-88.24811021119854Clb=-16.3m/s t=-40.4C h=73.1% p=-1.0hPa 403.400 MHz Type=RS41-NG ser=U3044505 Radiosonde
N4XWC-2U30445052022-12-07 01:06:4132.3971-88.26719310610843Clb=-15.5m/s t=-47.0C h=28.3% p=-1.0hPa 403.400 MHz Type=RS41-NG ser=U3044505 Radiosonde
N4XWC-2U30445052022-12-07 01:05:3232.3988-88.286410011111776Clb=-15.5m/s t=-54.9C h=34.3% p=-1.0hPa 403.400 MHz Type=RS41-NG ser=U3044505 Radiosonde
N4XWC-2U30445052022-12-07 01:04:2532.4037-88.306810311912844Clb=-16.2m/s t=-62.1C h=29.1% p=-1.0hPa 403.400 MHz Type=RS41-NG ser=U3044505 Radiosonde
N4XWC-2U30445052022-12-07 01:03:2232.4053-88.33089614413847Clb=-16.8m/s t=-69.2C h=19.9% p=-1.0hPa 403.400 MHz Type=RS41-NG ser=U3044505 Radiosonde
N4XWC-2U30445052022-12-07 01:02:2132.407-88.35278911314912Clb=-18.3m/s t=-69.0C h=8.0% p=-1.0hPa 403.400 MHz Type=RS41-NG ser=U3044505 Radiosonde
N4XWC-2U30445052022-12-07 01:01:2032.4062-88.3709819116134Clb=-20.8m/s t=-71.0C h=7.2% p=-1.0hPa 403.400 MHz Type=RS41-NG ser=U3044505 Radiosonde
N4XWC-2U30445052022-12-07 01:00:5332.4071-88.3875908017446Clb=-22.7m/s t=-73.1C h=6.6% p=-1.0hPa 403.401 MHz Type=RS41-NG ser=U3044505 Radiosonde
N4XWC-2U30445052022-12-07 01:00:5032.4072-88.4026908318921Clb=-25.0m/s t=-73.4C h=5.0% p=-1.0hPa 403.401 MHz Type=RS41-NG ser=U3044505 Radiosonde
N4XWC-2U30445052022-12-07 01:00:4632.4069-88.4132735420602Clb=-30.5m/s t=-72.1C h=3.9% p=-1.0hPa 403.401 MHz Type=RS41-NG ser=U3044505 Radiosonde
N4XWC-2U30445052022-12-07 01:00:3032.4077-88.4192582222813Clb=-42.3m/s t=-59.2C h=1.4% p=-1.0hPa 403.401 MHz Type=RS41-NG ser=U3044505 Radiosonde
N4XWC-2U30445052022-12-07 01:00:2032.4068-88.4257815425245Clb=-42.0m/s t=-55.6C h=1.3% p=-1.0hPa 403.401 MHz Type=RS41-NG ser=U3044505 Radiosonde
N4XWC-2U30445052022-12-07 01:00:0532.4058-88.4392918127533Clb=-42.4m/s t=-49.7C h=1.0% p=-1.0hPa 403.401 MHz Type=RS41-NG ser=U3044505 Radiosonde
N4XWC-2U30445052022-12-07 00:58:4532.4037-88.46048516130335Clb=-46.5m/s t=-40.2C h=0.5% p=-1.0hPa 403.401 MHz Type=RS41-NG ser=U3044505 Radiosonde
N4XWC-2U30445052022-12-07 00:57:2332.4006-88.48938516733060Clb=-48.0m/s t=-41.4C h=0.5% p=-1.0hPa 403.401 MHz Type=RS41-NG ser=U3044505 Radiosonde
N4XWC-2U30445052022-12-07 00:56:0032.3984-88.52088820933647Clb=8.3m/s t=-43.2C h=0.6% p=-1.0hPa 403.401 MHz Type=RS41-NG ser=U3044505 Radiosonde
N4XWC-2U30445052022-12-07 00:54:3932.3972-88.55167220033265Clb=6.3m/s t=-42.7C h=0.6% p=-1.0hPa 403.401 MHz Type=RS41-NG ser=U3044505 Radiosonde
N4XWC-2U30445052022-12-07 00:53:1332.3941-88.5849220432872Clb=6.3m/s t=-41.0C h=0.6% p=-1.0hPa 403.401 MHz Type=RS41-NG ser=U3044505 Radiosonde
N4XWC-2U30445052022-12-07 00:51:4132.3911-88.61388512632485Clb=4.4m/s t=-40.1C h=0.6% p=-1.0hPa 403.401 MHz Type=RS41-NG ser=U3044505 Radiosonde
N4XWC-2U30445052022-12-07 00:50:1132.3892-88.64337520932118Clb=9.2m/s t=-40.4C h=0.6% p=-1.0hPa 403.401 MHz Type=RS41-NG ser=U3044505 Radiosonde
N4XWC-2U30445052022-12-07 00:48:4132.388-88.672410316331747Clb=3.1m/s t=-40.5C h=0.5% p=-1.0hPa 403.401 MHz Type=RS41-NG ser=U3044505 Radiosonde
N4XWC-2U30445052022-12-07 00:47:0732.3871-88.70038620931339Clb=5.5m/s t=-42.6C h=0.6% p=-1.0hPa 403.401 MHz Type=RS41-NG ser=U3044505 Radiosonde
N4XWC-2U30445052022-12-07 00:45:3232.3829-88.73038813530937Clb=2.2m/s t=-42.6C h=0.6% p=-1.0hPa 403.401 MHz Type=RS41-NG ser=U3044505 Radiosonde
N4XWC-2U30445052022-12-07 00:44:0332.3803-88.75928216130541Clb=10.1m/s t=-42.0C h=0.6% p=-1.0hPa 403.401 MHz Type=RS41-NG ser=U3044505 Radiosonde
N4XWC-2U30445052022-12-07 00:43:0132.3781-88.78768118930172Clb=1.1m/s t=-41.1C h=0.6% p=-1.0hPa 403.401 MHz Type=RS41-NG ser=U3044505 Radiosonde
N4XWC-2U30445052022-12-07 00:42:0032.3744-88.81318611729834Clb=8.3m/s t=-43.9C h=0.7% p=-1.0hPa 403.401 MHz Type=RS41-NG ser=U3044505 Radiosonde
N4XWC-2U30445052022-12-07 00:41:5132.3705-88.83588013929467Clb=9.2m/s t=-46.5C h=0.8% p=-1.0hPa 403.401 MHz Type=RS41-NG ser=U3044505 Radiosonde
N4XWC-2U30445052022-12-07 00:41:3432.3675-88.85727711929076Clb=6.4m/s t=-46.6C h=0.8% p=-1.0hPa 403.401 MHz Type=RS41-NG ser=U3044505 Radiosonde
N4XWC-2U30445052022-12-07 00:41:3132.3647-88.8777212628680Clb=3.3m/s t=-48.3C h=0.9% p=-1.0hPa 403.401 MHz Type=RS41-NG ser=U3044505 Radiosonde
N4XWC-2U30445052022-12-07 00:41:2732.364-88.89468212428293Clb=4.6m/s t=-48.8C h=0.9% p=-1.0hPa 403.401 MHz Type=RS41-NG ser=U3044505 Radiosonde
N4XWC-2U30445052022-12-07 00:41:2432.3636-88.91277110427943Clb=3.9m/s t=-49.3C h=0.9% p=-1.0hPa 403.401 MHz Type=RS41-NG ser=U3044505 Radiosonde
N4XWC-2U30445052022-12-07 00:40:5632.3632-88.92828211127603Clb=6.6m/s t=-50.3C h=1.0% p=-1.0hPa 403.400 MHz Type=RS41-NG ser=U3044505 Radiosonde
N4XWC-2U30445052022-12-07 00:39:2232.3639-88.9442898727246Clb=6.1m/s t=-50.7C h=1.0% p=-1.0hPa 403.400 MHz Type=RS41-NG ser=U3044505 Radiosonde
N4XWC-2U30445052022-12-07 00:37:4732.363-88.95998610726843Clb=3.3m/s t=-51.4C h=1.0% p=-1.0hPa 403.401 MHz Type=RS41-NG ser=U3044505 Radiosonde
N4XWC-2U30445052022-12-07 00:36:0432.3605-88.9733766926456Clb=7.3m/s t=-51.8C h=1.1% p=-1.0hPa 403.400 MHz Type=RS41-NG ser=U3044505 Radiosonde
N4XWC-2U30445052022-12-07 00:34:2832.3597-88.98721027426103Clb=5.8m/s t=-52.4C h=1.1% p=-1.0hPa 403.400 MHz Type=RS41-NG ser=U3044505 Radiosonde
N4XWC-2U30445052022-12-07 00:32:4532.3588-89.0015796725738Clb=5.2m/s t=-52.8C h=1.0% p=-1.0hPa 403.400 MHz Type=RS41-NG ser=U3044505 Radiosonde
N4XWC-2U30445052022-12-07 00:30:5732.3577-89.01321136125396Clb=2.6m/s t=-56.4C h=1.3% p=-1.0hPa 403.400 MHz Type=RS41-NG ser=U3044505 Radiosonde
N4XWC-2U30445052022-12-07 00:29:1532.3563-89.0234628125076Clb=2.5m/s t=-58.6C h=1.4% p=-1.0hPa 403.400 MHz Type=RS41-NG ser=U3044505 Radiosonde
N4XWC-2U30445052022-12-07 00:27:4532.353-89.0303505224733Clb=7.5m/s t=-58.9C h=1.5% p=-1.0hPa 403.400 MHz Type=RS41-NG ser=U3044505 Radiosonde
N4XWC-2U30445052022-12-07 00:27:1432.3585-89.057641722990Clb=7.3m/s t=-60.1C h=1.5% p=-1.0hPa 403.400 MHz Type=RS41-NG ser=U3044505 Radiosonde
N4XWC-2U30445052022-12-07 00:26:5832.3582-89.0615972622599Clb=7.2m/s t=-62.4C h=1.8% p=-1.0hPa 403.400 MHz Type=RS41-NG ser=U3044505 Radiosonde
N4XWC-2U30445052022-12-07 00:26:2232.3594-89.0687915622274Clb=4.6m/s t=-63.2C h=2.0% p=-1.0hPa 403.400 MHz Type=RS41-NG ser=U3044505 Radiosonde
N4XWC-2U30445052022-12-07 00:24:4032.359-89.0785945721978Clb=6.0m/s t=-63.0C h=2.2% p=-1.0hPa 403.400 MHz Type=RS41-NG ser=U3044505 Radiosonde
N4XWC-2U30445052022-12-07 00:22:5132.3593-89.0861934421654Clb=6.0m/s t=-66.8C h=3.0% p=-1.0hPa 403.400 MHz Type=RS41-NG ser=U3044505 Radiosonde
N4XWC-2U30445052022-12-07 00:21:0632.3594-89.0909148421328Clb=3.5m/s t=-67.7C h=3.8% p=-1.0hPa 403.400 MHz Type=RS41-NG ser=U3044505 Radiosonde
N4XWC-2U30445052022-12-07 00:19:2332.3624-89.09391163121016Clb=5.7m/s t=-68.4C h=4.7% p=-1.0hPa 403.400 MHz Type=RS41-NG ser=U3044505 Radiosonde
N4XWC-2U30445052022-12-07 00:17:3732.3622-89.1038615720705Clb=5.6m/s t=-73.1C h=6.2% p=-1.0hPa 403.400 MHz Type=RS41-NG ser=U3044505 Radiosonde
N4XWC-2U30445052022-12-07 00:15:5132.3609-89.1145795420396Clb=3.9m/s t=-73.4C h=6.5% p=-1.0hPa 403.400 MHz Type=RS41-NG ser=U3044505 Radiosonde
N4XWC-2U30445052022-12-07 00:14:0732.36-89.1246773920102Clb=5.7m/s t=-72.7C h=6.4% p=-1.0hPa 403.400 MHz Type=RS41-NG ser=U3044505 Radiosonde
N4XWC-2U30445052022-12-07 00:11:3232.3586-89.13961036719519Clb=5.5m/s t=-70.8C h=6.5% p=-1.0hPa 403.400 MHz Type=RS41-NG ser=U3044505 Radiosonde
N4XWC-2U30445052022-12-07 00:10:4732.3588-89.1523835219243Clb=4.8m/s t=-71.8C h=7.6% p=-1.0hPa 403.400 MHz Type=RS41-NG ser=U3044505 Radiosonde
N4XWC-2U30445052022-12-07 00:10:0132.3599-89.16541018318943Clb=6.3m/s t=-72.6C h=8.6% p=-1.0hPa 403.400 MHz Type=RS41-NG ser=U3044505 Radiosonde
N4XWC-2U30445052022-12-07 00:09:4832.3604-89.1814879818631Clb=4.7m/s t=-72.3C h=9.3% p=-1.0hPa 403.400 MHz Type=RS41-NG ser=U3044505 Radiosonde
N4XWC-2U30445052022-12-07 00:09:4532.3596-89.19768410718344Clb=4.7m/s t=-72.4C h=-1.0% p=-1.0hPa 403.400 MHz Type=RS41-NG ser=U3044505 Radiosonde
N4XWC-2U30445052022-12-07 00:07:1632.3621-89.2505897417306Clb=5.5m/s t=-273.0C h=-1.0% p=-1.0hPa 403.400 MHz Type=RS41 ser=U3044505 Radiosonde